• Join FlightAware (Why Join?)
  • Login
  • US Flag 
09:36PM EDT


 

Airport Tracker/Info


-or-


 

Live Flight TrackerFlight Track Log ✈ XOJ549 ✈ 01-Sep-2013 ✈ KHOU - KVNY

Flight Track Log - Related Links

Times and Time Zones

All times are in EDT time to prevent confusion due to time zone crossing. See the XOJ549 flight status page for this flight to view local times or setup timezone preferences in your user account.

Time Position Orientation Groundspeed Altitude Reporting Facility
EDT Latitude Longitude Course Direction KTS MPH feet Rate Location/Type
10:14AM 29.6286 -95.2611 36° Northeast 147 169 900  Level Houston Center
10:15AM 29.6558 -95.2386 36° Northeast 206 237 2,800 2,220 Climbing Houston Center
10:15AM 29.6769 -95.2722 306° West 216 249 4,200 2,400 Climbing Houston Center
10:16AM 29.7058 -95.3539 292° West 265 305 7,100 2,880 Climbing Houston Center
10:17AM 29.7281 -95.4422 286° West 284 327 10,100 1,860 Climbing Houston Center
10:18AM 29.7536 -95.5350 288° West 301 346 11,000 1,020 Climbing Houston Center
10:19AM 29.7861 -95.6536 288° West 319 367 12,200 1,680 Climbing Houston Center
10:20AM 29.8172 -95.7681 287° West 371 427 14,500 2,340 Climbing Houston Center
10:21AM 29.8481 -95.8833 287° West 377 434 17,000 2,400 Climbing Houston Center
10:23AM 29.8794 -96.0000 287° West 382 440 19,500 2,340 Climbing Houston Center
10:24AM 29.9092 -96.1056 288° West 380 437 21,800 2,400 Climbing Houston Center
10:25AM 29.9392 -96.2442 284° West 374 430 24,500 1,800 Climbing Houston Center
10:26AM 29.9603 -96.3664 281° West 391 450 25,500 960 Climbing Houston Center
10:27AM 29.9903 -96.4961 285° West 415 478 26,500 960 Climbing Houston Center
10:28AM 30.0217 -96.6328 285° West 437 503 27,500 1,140 Climbing Houston Center
10:29AM 30.0531 -96.7714 285° West 449 517 28,900 1,380 Climbing Houston Center
10:30AM 30.0842 -96.9092 285° West 447 514 30,400 1,560 Climbing Houston Center
10:31AM 30.1167 -97.0572 284° West 448 516 32,100 1,380 Climbing Houston Center
10:32AM 30.1475 -97.1992 284° West 449 517 33,300 1,020 Climbing Houston Center
10:33AM 30.1800 -97.3431 285° West 455 524 34,200 840 Climbing Houston Center
10:34AM 30.2114 -97.4914 284° West 466 536 35,100 840 Climbing Houston Center
10:35AM 30.2442 -97.6400 284° West 470 541 36,000 840 Climbing Houston Center
10:36AM 30.2775 -97.7908 284° West 476 548 36,900 960 Climbing Houston Center
10:37AM 30.3192 -97.9600 286° West 474 545 38,000 840 Climbing Houston Center
10:38AM 30.3539 -98.0886 287° West 477 549 38,700 780 Climbing Houston Center
10:39AM 30.3953 -98.2356 288° West 475 547 39,700 900 Climbing Houston Center
10:40AM 30.4350 -98.3808 288° West 472 543 40,600 780 Climbing Houston Center
10:41AM 30.4744 -98.5219 288° West 460 529 41,300 600 Climbing Houston Center
10:42AM 30.5125 -98.6636 287° West 455 524 41,900 540 Climbing Houston Center
10:43AM 30.5511 -98.8042 288° West 453 521 42,500 480 Climbing Houston Center
10:44AM 30.5944 -98.9658 287° West 447 514 43,000 240 Climbing Houston Center
10:45AM 30.6314 -99.1053 287° West 448 516 43,000  Level Houston Center
10:46AM 30.6675 -99.2400 287° West 454 522 43,000  Level Houston Center
10:47AM 30.7047 -99.3814 287° West 459 528 43,000  Level Houston Center
10:48AM 30.7439 -99.5225 288° West 461 531 43,000  Level Houston Center
10:49AM 30.7803 -99.6656 287° West 463 533 43,000  Level Houston Center
10:50AM 30.8169 -99.8053 287° West 468 539 43,000  Level Houston Center
10:51AM 30.8539 -99.9469 287° West 470 541 43,000  Level Houston Center
10:52AM 30.8975 -100.1183 287° West 475 547 43,000  Level Houston Center
10:53AM 30.9342 -100.2578 287° West 466 536 43,000  Level Houston Center
10:54AM 30.9711 -100.3989 287° West 462 532 43,000  Level Houston Center
10:55AM 31.0064 -100.5417 286° West 461 531 43,000  Level Houston Center
10:56AM 31.0422 -100.6800 287° West 451 519 43,000  Level Houston Center
10:57AM 31.0783 -100.8203 287° West 453 521 43,000  Level Houston Center
10:58AM 31.1144 -100.9619 287° West 452 520 43,000  Level Houston Center
10:59AM 31.1500 -101.0997 287° West 447 514 43,000  Level Houston Center
11:00AM 31.1919 -101.2714 286° West 454 522 43,000  Level Houston Center
11:01AM 31.2244 -101.4019 286° West 454 522 43,000  Level Houston Center
11:02AM 31.2592 -101.5433 286° West 454 522 43,000  Level Houston Center
11:03AM 31.2903 -101.6850 284° West 452 520 43,000  Level Houston Center
11:04AM 31.3322 -101.8539 286° West 454 522 43,000  Level Houston Center
11:05AM 31.3678 -101.9944 287° West 453 521 43,000  Level Houston Center
11:06AM 31.4050 -102.1364 287° West 462 532 43,000  Level Houston Center
11:07AM 31.4383 -102.2803 285° West 467 537 43,000  Level Houston Center
11:08AM 31.4692 -102.4239 284° West 465 535 43,000  Level Houston Center
11:09AM 31.5008 -102.5653 285° West 458 527 43,000  Level Houston Center
11:11AM 31.5403 -102.7372 285° West 457 526 43,000  Level Houston Center
11:12AM 31.5744 -102.8806 286° West 459 528 43,000  Level Houston Center
11:13AM 31.6072 -103.0250 285° West 459 528 43,000  Level Houston Center
11:14AM 31.6400 -103.1703 285° West 460 529 43,000  Level Houston Center
11:15AM 31.6858 -103.3708 285° West 459 528 43,000  Level Albuquerque Center
11:16AM 31.7153 -103.5014 285° West 457 526 43,000  Level Albuquerque Center
11:17AM 31.7467 -103.6456 284° West 456 525 43,000  Level Albuquerque Center
11:18AM 31.7847 -103.8067 286° West 458 527 43,000  Level Albuquerque Center
11:19AM 31.8178 -103.9492 285° West 456 525 43,000  Level Albuquerque Center
11:20AM 31.8497 -104.0942 285° West 458 527 43,000  Level Albuquerque Center
11:21AM 31.8842 -104.2428 285° West 467 537 43,000  Level Albuquerque Center
11:22AM 31.9164 -104.3881 285° West 466 536 43,000  Level Albuquerque Center
11:23AM 31.9478 -104.5319 284° West 460 529 43,000  Level Albuquerque Center
11:24AM 31.9839 -104.7028 284° West 449 517 43,000  Level Albuquerque Center
11:25AM 32.0144 -104.8450 284° West 449 517 43,000  Level Albuquerque Center
11:26AM 32.0456 -104.9908 284° West 456 525 43,000  Level Albuquerque Center
11:27AM 32.0772 -105.1378 284° West 461 531 43,000  Level Albuquerque Center
11:28AM 32.1081 -105.2853 284° West 464 534 43,000  Level Albuquerque Center
11:29AM 32.1389 -105.4289 284° West 460 529 43,000  Level Albuquerque Center
11:30AM 32.1697 -105.5764 284° West 463 533 43,000  Level Albuquerque Center
11:31AM 32.1997 -105.7219 284° West 459 528 43,000  Level Albuquerque Center
11:32AM 32.2303 -105.8678 284° West 460 529 43,000  Level Albuquerque Center
11:33AM 32.2669 -106.0442 284° West 462 532 43,000  Level Albuquerque Center
11:34AM 32.2969 -106.1928 283° West 465 535 43,000  Level Albuquerque Center
11:35AM 32.3269 -106.3394 284° West 464 534 43,000  Level Albuquerque Center
11:36AM 32.3575 -106.4886 284° West 466 536 43,000  Level Albuquerque Center
11:37AM 32.3867 -106.6369 283° West 465 535 43,000  Level Albuquerque Center
11:38AM 32.4169 -106.7853 284° West 465 535 43,000  Level Albuquerque Center
11:39AM 32.4456 -106.9356 283° West 468 539 43,000  Level Albuquerque Center
11:40AM 32.4736 -107.0867 282° West 471 542 43,000  Level Albuquerque Center
11:41AM 32.5050 -107.2458 283° West 469 540 43,000  Level Albuquerque Center
11:42AM 32.5347 -107.3958 283° West 469 540 43,000  Level Albuquerque Center
11:43AM 32.5631 -107.5531 282° West 469 540 43,000  Level Albuquerque Center
11:44AM 32.5917 -107.7036 283° West 469 540 43,000  Level Albuquerque Center
11:46AM 32.6189 -107.8489 283° West 469 540 43,000  Level Albuquerque Center
11:47AM 32.6472 -108.0003 283° West 470 541 43,000  Level Albuquerque Center
11:48AM 32.6819 -108.1822 283° West 471 542 43,000  Level Albuquerque Center
11:49AM 32.7106 -108.3356 283° West 474 545 43,000  Level Albuquerque Center
11:50AM 32.7386 -108.4878 282° West 474 545 43,000  Level Albuquerque Center
11:51AM 32.7675 -108.6411 283° West 473 544 43,000  Level Albuquerque Center
11:52AM 32.7956 -108.7992 282° West 476 548 43,000  Level Albuquerque Center
11:53AM 32.8258 -108.9525 283° West 477 549 43,000  Level Albuquerque Center
11:54AM 32.8508 -109.1108 281° West 475 547 43,000  Level Albuquerque Center
11:55AM 32.8781 -109.2681 282° West 476 548 43,000  Level Albuquerque Center
11:56AM 32.9064 -109.4231 282° West 477 549 43,000  Level Albuquerque Center
11:57AM 32.9333 -109.5783 282° West 478 550 43,000  Level Albuquerque Center
11:58AM 32.9603 -109.7331 282° West 478 550 43,000  Level Albuquerque Center
11:59AM 32.9872 -109.8883 282° West 478 550 43,000  Level Albuquerque Center
12:00PM 33.0144 -110.0433 282° West 478 550 43,000  Level Albuquerque Center
12:01PM 33.0419 -110.2000 282° West 483 556 43,000  Level Albuquerque Center
12:02PM 33.0733 -110.3858 281° West 479 551 43,000  Level Albuquerque Center
12:03PM 33.0992 -110.5419 281° West 479 551 43,000  Level Albuquerque Center
12:04PM 33.1250 -110.6950 281° West 479 551 43,000  Level Albuquerque Center
12:05PM 33.1500 -110.8511 281° West 478 550 43,000  Level Albuquerque Center
12:06PM 33.1750 -111.0056 281° West 476 548 43,000  Level Albuquerque Center
12:07PM 33.2011 -111.1597 281° West 475 547 43,000  Level Albuquerque Center
12:08PM 33.2247 -111.3164 280° West 478 550 43,000  Level Albuquerque Center
12:09PM 33.2503 -111.4728 281° West 478 550 43,000  Level Albuquerque Center
12:10PM 33.2744 -111.6289 281° West 478 550 43,000  Level Albuquerque Center
12:11PM 33.2986 -111.7878 280° West 482 555 43,000  Level Albuquerque Center
12:12PM 33.3281 -111.9761 281° West 480 552 43,000  Level Albuquerque Center
12:13PM 33.3508 -112.1331 280° West 479 551 43,000  Level Albuquerque Center
12:14PM 33.3744 -112.2919 280° West 482 555 43,000  Level Albuquerque Center
12:15PM 33.3983 -112.4486 280° West 478 550 43,000  Level Albuquerque Center
12:16PM 33.4239 -112.6128 281° West 477 549 43,000  Level Albuquerque Center
12:17PM 33.4461 -112.7681 280° West 478 550 43,000  Level Albuquerque Center
12:18PM 33.4725 -112.9231 282° West 477 549 43,000  Level Albuquerque Center
12:19PM 33.5036 -113.0792 283° West 482 555 43,000  Level Albuquerque Center
12:20PM 33.5325 -113.2333 283° West 479 551 43,000  Level Albuquerque Center
12:21PM 33.5622 -113.3883 283° West 480 552 43,000  Level Albuquerque Center
12:22PM 33.5908 -113.5422 283° West 477 549 43,000  Level Albuquerque Center
12:23PM 33.6253 -113.7258 283° West 476 548 43,000  Level Albuquerque Center
12:24PM 33.6769 -113.8686 294° West 475 547 43,000  Level Albuquerque Center
12:25PM 33.7533 -114.0003 305° West 482 555 43,000  Level Albuquerque Center
12:26PM 33.8283 -114.1325 304° West 481 554 43,000  Level Albuquerque Center
12:27PM 33.9072 -114.2661 305° West 482 555 43,000 -60 Level Albuquerque Center
12:28PM 33.9814 -114.3986 304° West 482 555 42,900  Descending Albuquerque Center
12:29PM 34.0572 -114.5311 305° West 480 552 43,000  Climbing Albuquerque Center
12:31PM 34.1569 -114.7050 305° West 475 547 43,000  Level Los Angeles Center
12:32PM 34.2467 -114.8647 304° West 480 552 43,000  Level Los Angeles Center
12:33PM 34.3214 -114.9983 304° West 479 551 43,000  Level Los Angeles Center
12:34PM 34.3958 -115.1306 304° West 477 549 43,000  Level Los Angeles Center
12:35PM 34.4686 -115.2625 304° West 475 547 43,000  Level Los Angeles Center
12:36PM 34.5281 -115.3681 304° West 475 547 43,000 -420 Level Los Angeles Center
12:37PM 34.6131 -115.5228 304° West 465 535 42,200 -2,100 Descending Los Angeles Center
12:38PM 34.6922 -115.6719 303° West 466 536 38,700 -3,180 Descending Los Angeles Center
12:39PM 34.7308 -115.8267 287° West 478 550 35,700 -2,940 Descending Los Angeles Center
12:40PM 34.7469 -115.9883 277° West 482 555 32,700 -3,000 Descending Los Angeles Center
12:41PM 34.7642 -116.1550 277° West 491 565 29,600 -3,000 Descending Los Angeles Center
12:42PM 34.7828 -116.3211 278° West 498 573 26,600 -2,880 Descending Los Angeles Center
12:43PM 34.7947 -116.4769 275° West 473 544 23,800 -1,860 Descending Los Angeles Center
12:44PM 34.7811 -116.6258 264° West 446 513 22,800 -1,140 Descending Los Angeles Center
12:45PM 34.7639 -116.8067 263° West 448 516 21,500 -1,140 Descending Los Angeles Center
12:46PM 34.7486 -116.9519 263° West 436 502 20,500 -900 Descending Los Angeles Center
12:47PM 34.7339 -117.0953 263° West 428 493 19,500 -1,020 Descending Los Angeles Center
12:48PM 34.7167 -117.2628 263° West 416 479 18,200 -1,080 Descending Los Angeles Center
12:49PM 34.7025 -117.3997 263° West 408 470 17,300 -1,020 Descending Los Angeles Center
12:51PM 34.6842 -117.5342 261° West 404 465 16,200 -1,200 Descending Los Angeles Center
12:52PM 34.6656 -117.6686 260° West 409 471 14,900 -1,320 Descending Los Angeles Center
12:53PM 34.6472 -117.7967 260° West 396 456 13,600 -1,260 Descending Los Angeles Center
12:54PM 34.6300 -117.9181 260° West 366 421 12,400 -780 Descending Los Angeles Center
12:55PM 34.6100 -118.0589 260° West 353 406 12,000 -780 Descending Los Angeles Center
12:56PM 34.5953 -118.1592 260° West 339 390 10,900 -1,260 Descending Los Angeles Center
12:57PM 34.5806 -118.2589 260° West 306 352 9,500 -1,440 Descending Los Angeles Center
12:58PM 34.5642 -118.3675 260° West 277 319 8,000 -720 Descending Los Angeles Center
12:59PM 34.5439 -118.4403 251° West 233 268 8,000 -900 Level Los Angeles Center
01:00PM 34.4703 -118.4681 197° South 239 275 5,800 -1,320 Descending Los Angeles Center
01:01PM 34.3939 -118.4942 196° South 236 272 4,800 -1,020 Descending Los Angeles Center
01:02PM 34.3333 -118.5000 185° South 194 223 3,600 -1,320 Descending Southern California TRACON
01:03PM 34.2667 -118.5000 180° South 186 214 2,300 -1,200 Descending Southern California TRACON
01:04PM 34.2333 -118.5000 180° South 145 167 1,200 -1,140 Descending Southern California TRACON
01:06PM 34.2098 -118.4900 180° South  Level Estimated
01:13PM 34.2098 -118.4900 180° South  Level Estimated
01:14PM 34.2098 -118.4900 180° South  Level Estimated